Latest Weather Observations for Nambour

IDQ60901

Issued at 10:25 am EST Friday 25 July 2014 (issued every 10 minutes, with the page automatically refreshed every 10 minutes)

About weather observations | Map of Brisbane area stations | Latest observations for Brisbane area | Other Formats
Station Details ID: 040988 Name: NAMBOUR DAFF - HILLSIDE Lat: -26.64 Lon: 152.94 Height: 53.24 m
Data from the previous 72 hours. | See also: Recent months at Nambour
Date/Time
EST
Tmp

°C
App
Tmp
°C
Dew
Point
°C
Rel
Hum
%
Delta-T

°C
Wind Press
QNH
hPa
Press
MSL
hPa
Rain
since
9 am
mm
Dir
 
Spd
km/h
Gust
km/h
Spd
kts
Gust
kts
25/10:00am 20.3 21.3 14.4 69 3.4 ENE 2 6 1 3 1026.9 1026.9 0.0
25/09:30am 19.4 19.5 14.4 73 2.9 ENE 7 9 4 5 1027.0 - 0.0
25/09:00am 18.0 19.0 14.3 79 2.1 E 2 6 1 3 1026.9 1026.9 0.2
25/08:30am 15.8 17.2 14.3 91 0.9 CALM 0 4 0 2 1026.8 - 0.2
25/08:00am 14.2 15.4 13.7 97 0.3 CALM 0 0 0 0 1026.7 1026.7 0.2
25/07:30am 11.3 11.6 10.8 97 0.3 CALM 0 0 0 0 1026.3 - 0.2
25/07:00am 9.9 9.8 9.4 97 0.2 CALM 0 0 0 0 1026.0 1026.0 0.2
25/06:30am 10.4 10.4 9.9 97 0.3 CALM 0 0 0 0 1025.7 - 0.2
25/06:00am 10.4 10.4 9.9 97 0.3 CALM 0 0 0 0 1025.3 1025.3 0.2
25/05:30am 10.7 10.8 10.2 97 0.3 CALM 0 0 0 0 1024.9 - 0.2
25/05:00am 10.9 11.1 10.4 97 0.3 CALM 0 0 0 0 1024.6 1024.6 0.2
25/04:30am 10.6 10.7 10.1 97 0.3 CALM 0 0 0 0 1024.4 - 0.2
25/04:00am 10.6 10.7 10.1 97 0.3 CALM 0 0 0 0 1024.2 1024.2 0.0
25/03:30am 10.8 10.9 10.3 97 0.3 CALM 0 0 0 0 1024.3 - 0.0
25/03:00am 11.8 12.2 11.3 97 0.3 CALM 0 0 0 0 1024.2 1024.2 0.0
25/02:30am 10.8 10.9 10.3 97 0.3 CALM 0 0 0 0 1024.2 - 0.0
25/02:00am 11.2 11.4 10.7 97 0.3 CALM 0 0 0 0 1024.2 1024.2 0.0
25/01:30am 11.6 12.0 11.1 97 0.3 CALM 0 0 0 0 1024.4 - 0.0
25/01:00am 11.7 12.1 11.1 96 0.3 CALM 0 0 0 0 1024.5 1024.5 0.0
25/12:30am 12.2 12.7 11.7 97 0.3 CALM 0 0 0 0 1024.6 - 0.0
25/12:00am 11.8 12.2 11.2 96 0.3 WSW 0 0 0 0 1024.6 1024.6 0.0
 
Date/Time
EST
Tmp

°C
App
Tmp
°C
Dew
Point
°C
Rel
Hum
%
Delta-T

°C
Wind Press
QNH
hPa
Press
MSL
hPa
Rain
since
9 am
mm
Dir
 
Spd
km/h
Gust
km/h
Spd
kts
Gust
kts
24/11:30pm 12.2 12.7 11.7 97 0.3 CALM 0 0 0 0 1024.6 - 0.0
24/11:00pm 12.2 12.7 11.7 97 0.3 CALM 0 0 0 0 1024.6 1024.6 0.0
24/10:30pm 12.1 12.5 11.3 95 0.4 CALM 0 0 0 0 1024.7 - 0.0
24/10:00pm 12.5 13.0 11.7 95 0.4 CALM 0 0 0 0 1024.7 1024.7 0.0
24/09:30pm 12.8 13.4 11.9 94 0.5 CALM 0 0 0 0 1024.7 - 0.0
24/09:00pm 12.7 13.2 11.6 93 0.6 CALM 0 0 0 0 1024.6 1024.6 0.0
24/08:30pm 13.3 14.0 12.2 93 0.6 CALM 0 0 0 0 1024.4 - 0.0
24/08:00pm 13.9 14.7 12.5 91 0.8 CALM 0 0 0 0 1024.0 1024.0 0.0
24/07:30pm 13.8 14.4 12.0 89 1.0 CALM 0 0 0 0 1023.6 - 0.0
24/07:00pm 14.4 15.1 12.1 86 1.2 CALM 0 0 0 0 1023.3 1023.3 0.0
24/06:30pm 14.7 15.2 11.7 82 1.6 CALM 0 0 0 0 1022.9 - 0.0
24/06:00pm 15.6 16.1 11.6 77 2.2 CALM 0 2 0 1 1022.6 1022.6 0.0
24/05:30pm 17.4 18.1 12.1 71 2.9 CALM 0 2 0 1 1022.3 - 0.0
24/05:00pm 18.2 17.7 12.2 68 3.3 E 6 9 3 5 1022.0 1022.0 0.0
24/04:30pm 19.2 18.3 12.7 66 3.7 ENE 9 15 5 8 1021.6 - 0.0
24/04:00pm 19.1 17.8 12.4 65 3.7 ENE 11 17 6 9 1021.4 1021.4 0.0
24/03:30pm 19.3 17.9 12.1 63 4.0 ENE 11 19 6 10 1021.2 - 0.0
24/03:00pm 19.9 19.0 11.4 58 4.7 E 7 15 4 8 1021.2 1021.2 0.0
24/02:30pm 19.9 18.5 10.9 56 4.9 E 9 15 5 8 1021.2 - 0.0
24/02:00pm 21.9 20.8 9.8 46 6.5 ESE 6 13 3 7 1021.2 1021.2 0.0
24/01:30pm 22.0 20.6 10.8 49 6.2 ENE 9 15 5 8 1021.2 - 0.0
24/01:00pm 21.4 20.1 9.3 46 6.5 SE 6 17 3 9 1021.4 1021.4 0.0
24/12:30pm 20.8 19.4 9.7 49 6.0 E 7 13 4 7 1021.7 - 0.0
24/12:00pm 20.9 21.0 11.5 55 5.2 S 2 7 1 4 1022.0 1022.0 0.0
24/11:30am 20.2 19.4 11.7 58 4.7 ENE 7 22 4 12 1022.4 - 0.0
24/11:00am 19.9 19.2 11.4 58 4.7 ENE 6 11 3 6 1023.2 1023.2 0.0
24/10:30am 20.1 20.0 12.1 60 4.5 ESE 4 9 2 5 1023.4 - 0.0
24/10:00am 19.7 19.9 12.9 65 3.8 SE 4 9 2 5 1023.3 1023.3 0.0
24/09:30am 18.6 18.1 11.9 65 3.7 SE 6 9 3 5 1023.0 - 0.0
24/09:00am 17.9 18.0 12.6 71 2.9 E 4 9 2 5 1023.1 1023.1 0.0
24/08:30am 15.8 16.4 11.8 77 2.2 CALM 0 0 0 0 1023.1 - 0.0
24/08:00am 13.6 14.1 11.5 87 1.1 CALM 0 0 0 0 1022.9 1022.9 0.0
24/07:30am 12.0 12.4 11.1 94 0.5 CALM 0 0 0 0 1023.0 - 0.0
24/07:00am 10.6 10.7 10.0 96 0.3 CALM 0 0 0 0 1022.7 1022.7 0.0
24/06:30am 10.6 10.7 10.0 96 0.3 CALM 0 0 0 0 1022.4 - 0.0
24/06:00am 11.1 11.3 10.6 97 0.3 CALM 0 0 0 0 1021.9 1021.9 0.0
24/05:30am 11.4 11.7 10.9 97 0.3 CALM 0 0 0 0 1021.5 - 0.0
24/05:00am 11.0 11.1 10.2 95 0.4 CALM 0 0 0 0 1021.3 1021.3 0.0
24/04:30am 11.6 11.9 11.0 96 0.3 CALM 0 0 0 0 1021.1 - 0.0
24/04:00am 11.6 11.9 10.8 95 0.4 CALM 0 0 0 0 1021.2 1021.2 0.0
24/03:30am 12.5 13.1 11.9 96 0.3 CALM 0 0 0 0 1021.3 - 0.0
24/03:00am 12.4 12.9 11.6 95 0.4 CALM 0 0 0 0 1021.5 1021.5 0.0
24/02:30am 12.5 13.0 11.6 94 0.5 CALM 0 0 0 0 1021.4 - 0.0
24/02:00am 12.5 12.9 11.4 93 0.6 CALM 0 0 0 0 1021.4 1021.4 0.0
24/01:30am 12.6 13.1 11.5 93 0.6 CALM 0 0 0 0 1021.6 - 0.0
24/01:00am 12.9 13.5 12.0 94 0.5 CALM 0 0 0 0 1021.6 1021.6 0.0
24/12:30am 12.5 12.9 11.2 92 0.7 CALM 0 0 0 0 1021.6 - 0.0
24/12:00am 13.8 13.7 12.2 90 0.9 SW 4 7 2 4 1021.7 1021.7 0.0
 
Date/Time
EST
Tmp

°C
App
Tmp
°C
Dew
Point
°C
Rel
Hum
%
Delta-T

°C
Wind Press
QNH
hPa
Press
MSL
hPa
Rain
since
9 am
mm
Dir
 
Spd
km/h
Gust
km/h
Spd
kts
Gust
kts
23/11:30pm 13.2 13.6 12.4 95 0.4 SW 2 6 1 3 1021.8 - 0.0
23/11:00pm 12.1 12.4 10.8 92 0.7 CALM 0 0 0 0 1022.1 1022.1 0.0
23/10:30pm 12.9 13.5 11.8 93 0.6 CALM 0 2 0 1 1022.6 - 0.0
23/10:00pm 12.1 12.3 10.7 91 0.7 CALM 0 0 0 0 1022.3 1022.3 0.0
23/09:30pm 12.2 12.4 10.6 90 0.8 CALM 0 0 0 0 1022.3 - 0.0
23/09:00pm 12.5 12.7 10.4 87 1.1 CALM 0 2 0 1 1022.2 1022.2 0.0
23/08:30pm 12.7 12.8 10.2 85 1.3 CALM 0 4 0 2 1022.1 - 0.0
23/08:00pm 12.8 13.0 10.7 87 1.1 CALM 0 0 0 0 1021.8 1021.8 0.0
23/07:30pm 12.8 12.9 10.3 85 1.3 CALM 0 0 0 0 1021.7 - 0.0
23/07:00pm 13.1 13.2 10.1 82 1.5 CALM 0 0 0 0 1021.4 1021.4 0.0
23/06:30pm 13.6 13.5 9.6 77 2.1 CALM 0 0 0 0 1021.4 - 0.0
23/06:00pm 14.9 15.0 10.1 73 2.5 CALM 0 0 0 0 1021.3 1021.3 0.0
23/05:30pm 15.5 15.1 9.6 68 3.1 SSW 2 4 1 2 1021.0 - 0.0
23/05:00pm 17.0 16.0 8.9 59 4.2 SE 4 6 2 3 1020.9 1020.9 0.0
23/04:30pm 18.2 16.7 8.5 53 5.0 ESE 6 9 3 5 1020.5 - 0.0
23/04:00pm 18.9 17.3 8.6 51 5.3 ESE 7 15 4 8 1020.4 1020.4 0.0
23/03:30pm 19.4 17.3 6.5 43 6.5 E 7 15 4 8 1020.3 - 0.0
23/03:00pm 19.8 17.4 7.2 44 6.4 SE 9 17 5 9 1020.3 1020.3 0.0
23/02:30pm 19.8 17.5 7.5 45 6.3 ESE 9 19 5 10 1020.3 - 0.0
23/02:00pm 20.0 18.2 8.0 46 6.2 ESE 7 17 4 9 1020.5 1020.5 0.0
23/01:30pm 19.7 18.0 8.4 48 5.9 ESE 7 15 4 8 1020.6 - 0.0
23/01:00pm 19.3 17.4 7.7 47 5.9 ESE 7 13 4 7 1020.6 1020.6 0.0
23/12:30pm 19.5 18.0 9.1 51 5.5 ESE 7 13 4 7 1020.8 - 0.0
23/12:00pm 18.9 16.9 8.6 51 5.3 ESE 9 17 5 9 1021.5 1021.5 0.0
23/11:30am 19.0 17.3 9.8 55 4.9 ESE 9 19 5 10 1022.1 - 0.0
23/11:00am 18.4 16.5 9.2 55 4.8 ESE 9 19 5 10 1022.6 1022.6 0.0
23/10:30am 18.7 17.7 10.3 58 4.5 SE 6 15 3 8 1023.0 - 0.0
23/10:00am 18.0 16.9 9.9 59 4.3 SE 6 15 3 8 1023.4 1023.4 0.0
23/09:30am 17.9 17.4 10.8 63 3.8 E 4 9 2 5 1023.4 - 0.0
23/09:00am 17.1 16.6 10.7 66 3.4 S 4 9 2 5 1023.3 1023.3 7.0
23/08:30am 15.9 15.9 11.3 74 2.5 SW 2 6 1 3 1022.9 - 7.0
23/08:00am 13.2 13.4 11.9 92 0.7 E 2 4 1 2 1022.5 1022.5 7.0
23/07:30am 10.7 10.7 9.8 94 0.5 CALM 0 2 0 1 1022.5 - 7.0
23/07:00am 9.3 8.6 8.7 96 0.3 S 2 7 1 4 1022.1 1022.1 7.0
23/06:30am 9.0 8.6 8.1 94 0.4 CALM 0 4 0 2 1021.7 - 7.0
23/06:00am 9.7 9.5 9.2 97 0.2 CALM 0 2 0 1 1021.3 1021.3 7.0
23/05:30am 9.5 9.3 8.9 96 0.3 CALM 0 2 0 1 1020.9 - 7.0
23/05:00am 9.5 9.2 8.7 95 0.4 CALM 0 0 0 0 1020.7 1020.7 7.0
23/04:30am 10.3 10.3 9.8 97 0.3 CALM 0 0 0 0 1020.3 - 7.0
23/04:00am 10.1 10.0 9.5 96 0.3 CALM 0 2 0 1 1020.0 1020.0 7.0
23/03:30am 9.9 9.3 9.0 94 0.4 W 2 7 1 4 1020.4 - 7.0
23/03:00am 11.3 11.6 10.8 97 0.3 CALM 0 4 0 2 1020.5 1020.5 7.0
23/02:30am 10.6 10.7 10.1 97 0.3 CALM 0 6 0 3 1020.7 - 7.0
23/02:00am 9.8 9.6 9.2 96 0.3 CALM 0 0 0 0 1020.7 1020.7 7.0
23/01:30am 10.1 10.0 9.6 97 0.3 CALM 0 0 0 0 1020.9 - 7.0
23/01:00am 10.1 10.0 9.5 96 0.3 CALM 0 0 0 0 1020.9 1020.9 7.0
23/12:30am 10.3 10.3 9.7 96 0.3 CALM 0 0 0 0 1021.0 - 7.0
23/12:00am 10.6 10.7 10.0 96 0.3 CALM 0 0 0 0 1021.3 1021.3 7.0
 
Date/Time
EST
Tmp

°C
App
Tmp
°C
Dew
Point
°C
Rel
Hum
%
Delta-T

°C
Wind Press
QNH
hPa
Press
MSL
hPa
Rain
since
9 am
mm
Dir
 
Spd
km/h
Gust
km/h
Spd
kts
Gust
kts
22/11:30pm 10.8 10.9 10.2 96 0.3 CALM 0 4 0 2 1021.2 - 7.0
22/11:00pm 10.9 11.0 10.3 96 0.3 CALM 0 4 0 2 1021.4 1021.4 6.8
22/10:30pm 11.5 11.7 10.7 95 0.4 CALM 0 0 0 0 1021.5 - 6.8
22/10:00pm 11.8 12.2 11.2 96 0.3 CALM 0 0 0 0 1021.9 1021.9 6.8
22/09:30pm 12.0 12.4 11.2 95 0.4 CALM 0 4 0 2 1021.9 - 6.8
22/09:00pm 12.9 13.2 12.1 95 0.4 SW 2 7 1 4 1021.6 1021.6 6.8
22/08:30pm 12.5 12.6 11.6 94 0.5 S 2 6 1 3 1021.6 - 6.8
22/08:00pm 13.2 13.9 12.1 93 0.6 CALM 0 6 0 3 1021.6 1021.6 6.8
22/07:30pm 13.6 14.0 12.5 93 0.6 S 2 4 1 2 1021.4 - 6.8
22/07:00pm 14.3 13.8 12.0 86 1.2 WSW 6 19 3 10 1021.1 1021.1 6.8
22/06:30pm 15.6 16.4 12.7 83 1.6 CALM 0 4 0 2 1020.5 - 0.2
22/06:00pm 16.2 16.9 12.2 77 2.2 CALM 0 0 0 0 1020.0 1020.0 0.0
22/05:30pm 16.9 17.2 12.2 74 2.6 SE 2 4 1 2 1019.8 - 0.0
22/05:00pm 17.5 17.7 11.8 69 3.1 E 2 4 1 2 1019.4 1019.4 0.0
22/04:30pm 18.8 19.4 11.9 64 3.8 CALM 0 4 0 2 1019.1 - 0.0
22/04:00pm 18.8 17.9 11.4 62 4.0 ENE 7 11 4 6 1019.0 1019.0 0.0
22/03:30pm 18.9 18.1 11.0 60 4.3 ESE 6 11 3 6 1018.9 - 0.0
22/03:00pm 19.6 18.8 11.1 58 4.6 ENE 6 9 3 5 1018.8 1018.8 0.0
22/02:30pm 20.0 19.4 11.8 59 4.6 ENE 6 11 3 6 1018.7 - 0.0
22/02:00pm 18.2 17.0 11.7 66 3.6 E 9 13 5 7 1018.7 1018.7 0.0
22/01:30pm 20.3 19.4 10.7 54 5.2 NE 6 11 3 6 1019.0 - 0.0
22/01:00pm 19.7 18.7 10.4 55 5.0 ENE 6 9 3 5 1019.3 1019.3 0.0
22/12:30pm 19.6 18.4 9.5 52 5.4 SE 6 9 3 5 1019.6 - 0.0
22/12:00pm 20.9 19.6 10.1 50 5.8 E 7 13 4 7 1020.3 1020.3 0.0
22/11:30am 20.1 19.0 10.8 55 5.1 E 7 13 4 7 1020.9 - 0.0
22/11:00am 20.6 20.2 11.2 55 5.2 ESE 4 9 2 5 1021.4 1021.4 0.0
22/10:30am 19.7 19.3 11.2 58 4.7 SSE 4 11 2 6 1021.8 - 0.0

Latest Capital City Observations: Canberra | Sydney | Melbourne | Brisbane | Adelaide | Perth | Hobart | Darwin

Other Formats:

Comma delimited format used in spreadsheet applications
http://www.bom.gov.au/fwo/IDQ60901/IDQ60901.95572.axf

JavaScript Object Notation format (JSON) in row-major order
http://www.bom.gov.au/fwo/IDQ60901/IDQ60901.95572.json